Latest Weather Observations for Geelong Racecourse

IDV60801

Issued at 11:02 am EDT Thursday 11 February 2016 (issued every 30 minutes, with the page automatically refreshed every 10 minutes)

About weather observations | Map of weather stations | Latest weather observations for VIC | Other Formats
Station Details ID: 087184 Name: GEELONG RACECOURSE Lat: -38.17 Lon: 144.38 Height: 12.9 m
Data from the previous 72 hours. | See also: Recent months at Geelong Racecourse
Date/Time
EDT
Temp
°C
App
Temp
°C
Dew
Point
Rel
Hum
%
Delta-T
°C
Wind Press
QNH
hPa
Press
MSL
hPa
Rain
since 9 am
mm
Dir
 
Spd
km/h
Gust
km/h
Spd
kts
Gust
kts
11/11:00am 20.4 18.1 13.1 63 4.1 SSE 17 22 9 12 1017.7 1017.7 0.0
11/10:30am 21.2 19.8 14.4 65 4.0 SSE 15 20 8 11 1017.7 1017.7 0.0
11/10:00am 19.7 19.4 14.3 71 3.1 SE 9 15 5 8 1017.8 1017.8 0.0
11/09:30am 19.4 19.5 14.4 73 2.9 SE 7 13 4 7 1017.6 1017.6 0.0
11/09:00am 19.6 19.7 14.4 72 3.0 SSE 7 11 4 6 1017.5 1017.5 0.0
11/08:30am 19.1 19.6 15.0 77 2.4 SE 6 9 3 5 1017.4 1017.4 0.0
11/08:00am 16.4 18.1 15.1 92 0.8 CALM 0 0 0 0 1017.3 1017.3 0.0
11/07:30am 14.9 15.7 13.8 93 0.6 WSW 2 4 1 2 1017.1 1017.1 0.0
11/07:00am 14.7 15.1 13.6 93 0.6 WSW 4 6 2 3 1016.8 1016.8 0.0
11/06:30am 14.7 15.1 13.6 93 0.6 WSW 4 6 2 3 1016.5 1016.5 0.0
11/06:00am 14.1 14.2 12.8 92 0.7 WSW 4 6 2 3 1016.2 1016.2 0.0
11/05:30am 14.5 14.7 13.2 92 0.7 WSW 4 6 2 3 1015.9 1015.9 0.0
11/05:00am 14.8 15.1 13.5 92 0.7 WSW 4 6 2 3 1015.8 1015.8 0.0
11/04:30am 15.5 16.1 14.2 92 0.7 WSW 4 6 2 3 1015.6 1015.6 0.0
11/04:00am 16.0 16.8 14.7 92 0.7 WSW 4 6 2 3 1015.6 1015.6 0.0
11/03:30am 15.3 16.2 14.0 92 0.7 WSW 2 4 1 2 1015.7 1015.7 0.0
11/03:00am 15.0 16.2 13.7 92 0.7 CALM 0 0 0 0 1015.9 1015.9 0.0
11/02:30am 14.4 14.2 13.1 92 0.7 WSW 6 7 3 4 1016.1 1016.1 0.0
11/02:00am 14.8 15.1 13.5 92 0.7 SSW 4 4 2 2 1016.3 1016.3 0.0
11/01:30am 15.1 15.4 13.5 90 0.9 SSW 4 4 2 2 1016.5 1016.5 0.0
11/01:00am 15.7 15.7 13.7 88 1.1 SSW 6 6 3 3 1016.5 1016.5 0.0
11/12:30am 16.3 16.5 14.1 87 1.2 SSW 6 7 3 4 1016.6 1016.6 0.0
11/12:00am 16.6 16.5 13.9 84 1.5 S 7 7 4 4 1016.6 1016.6 0.0
 
Date/Time
EDT
Temp
°C
App
Temp
°C
Dew
Point
Rel
Hum
%
Delta-T
°C
Wind Press
QNH
hPa
Press
MSL
hPa
Rain
since 9 am
mm
Dir
 
Spd
km/h
Gust
km/h
Spd
kts
Gust
kts
10/11:30pm 17.0 16.9 13.9 82 1.8 S 7 9 4 5 1016.8 1016.8 0.0
10/11:00pm 17.1 17.0 13.8 81 1.9 S 7 11 4 6 1016.9 1016.9 0.0
10/10:30pm 17.3 16.7 13.6 79 2.1 S 9 11 5 6 1016.9 1016.9 0.0
10/10:00pm 17.5 16.9 13.6 78 2.2 S 9 13 5 7 1016.7 1016.7 0.0
10/09:30pm 17.8 17.1 13.3 75 2.5 S 9 13 5 7 1016.5 1016.5 0.0
10/09:00pm 18.0 16.9 13.1 73 2.8 S 11 17 6 9 1016.2 1016.2 0.0
10/08:30pm 18.4 16.6 13.3 72 2.9 S 15 24 8 13 1016.0 1016.0 0.0
10/08:00pm 19.1 17.4 13.7 71 3.1 S 15 20 8 11 1015.8 1015.8 0.0
10/07:30pm 19.4 16.8 13.3 68 3.5 S 19 28 10 15 1015.4 1015.4 0.0
10/07:00pm 19.9 17.3 13.1 65 3.9 S 19 26 10 14 1015.2 1015.2 0.0
10/06:30pm 20.2 17.4 13.2 64 4.0 S 20 28 11 15 1014.9 1014.9 0.0
10/06:00pm 20.4 17.8 13.1 63 4.2 S 19 26 10 14 1014.8 1014.8 0.0
10/05:30pm 20.8 17.9 13.0 61 4.4 SSE 20 28 11 15 1014.7 1014.7 0.0
10/05:00pm 21.9 19.8 13.5 59 4.8 SSE 17 22 9 12 1014.5 1014.5 0.0
10/04:30pm 21.5 19.2 12.9 58 4.9 SSE 17 28 9 15 1014.6 1014.6 0.0
10/04:00pm 21.9 19.2 13.0 57 5.1 SSE 19 26 10 14 1014.8 1014.8 0.0
10/03:30pm 22.2 20.1 13.5 57 5.0 SSE 17 28 9 15 1014.9 1014.9 0.0
10/03:00pm 21.3 18.8 13.5 61 4.5 S 19 26 10 14 1015.2 1015.2 0.0
10/02:30pm 22.3 20.2 13.6 58 5.0 SSE 17 26 9 14 1015.2 1015.2 0.0
10/02:00pm 22.7 21.3 13.5 56 5.3 S 13 20 7 11 1015.4 1015.4 0.0
10/01:30pm 21.9 20.4 13.0 57 5.1 SSE 13 24 7 13 1015.4 1015.4 0.0
10/01:00pm 21.7 20.0 13.6 60 4.7 SSE 15 24 8 13 1015.8 1015.8 0.0
10/12:30pm 21.9 20.5 13.5 59 4.8 S 13 22 7 12 1016.1 1016.1 0.0
10/12:00pm 22.0 21.2 13.9 60 4.7 S 11 24 6 13 1016.3 1016.3 0.0
10/11:30am 21.3 20.7 14.5 65 4.0 S 11 17 6 9 1016.4 1016.4 0.0
10/11:00am 21.3 21.6 14.5 65 4.0 SE 6 13 3 7 1016.4 1016.4 0.0
10/10:30am 20.4 20.6 14.1 67 3.6 W 6 7 3 4 1016.5 1016.5 0.0
10/10:00am 20.9 21.1 14.1 65 3.9 ENE 6 9 3 5 1016.4 1016.4 0.0
10/09:30am 19.2 20.4 14.9 76 2.5 W 2 4 1 2 1016.5 1016.5 0.0
10/09:00am 18.6 19.5 15.1 80 2.0 W 4 6 2 3 1016.4 1016.4 0.0
10/08:30am 18.1 19.0 15.2 83 1.7 SW 4 7 2 4 1016.3 1016.3 0.0
10/08:00am 17.7 18.3 15.3 86 1.4 WSW 6 9 3 5 1016.1 1016.1 0.0
10/07:30am 17.4 18.0 15.4 88 1.2 WSW 6 6 3 3 1015.8 1015.8 0.0
10/07:00am 17.4 18.1 15.6 89 1.1 SSW 6 9 3 5 1015.7 1015.7 0.0
10/06:30am 17.1 18.3 15.8 92 0.8 SSW 4 6 2 3 1015.4 1015.4 0.0
10/06:00am 16.7 18.1 15.4 92 0.8 WSW 2 2 1 1 1015.2 1015.2 0.0
10/05:30am 16.3 17.2 15.2 93 0.6 WSW 4 4 2 2 1015.1 1015.1 0.0
10/05:00am 16.4 18.1 15.1 92 0.8 CALM 0 0 0 0 1015.0 1015.0 0.0
10/04:30am 16.7 18.5 15.4 92 0.8 CALM 0 0 0 0 1015.1 1015.1 0.0
10/04:00am 16.7 17.7 15.4 92 0.8 WSW 4 6 2 3 1015.4 1015.4 0.0
10/03:30am 16.7 17.1 15.4 92 0.8 WSW 7 9 4 5 1015.7 1015.7 0.0
10/03:00am 16.6 17.3 15.5 93 0.6 W 6 7 3 4 1015.8 1015.8 0.0
10/02:30am 16.3 17.2 15.2 93 0.6 W 4 6 2 3 1016.0 1016.0 0.0
10/02:00am 15.9 16.7 14.8 93 0.6 WSW 4 6 2 3 1016.3 1016.3 0.0
10/01:30am 16.0 16.8 14.9 93 0.6 SW 4 4 2 2 1016.5 1016.5 0.0
10/01:00am 16.1 16.6 15.0 93 0.6 SSW 6 6 3 3 1016.8 1016.8 0.0
10/12:30am 15.7 16.4 14.4 92 0.7 SSW 4 6 2 3 1017.1 1017.1 0.0
10/12:00am 16.1 16.5 14.8 92 0.7 S 6 7 3 4 1017.3 1017.3 0.0
 
Date/Time
EDT
Temp
°C
App
Temp
°C
Dew
Point
Rel
Hum
%
Delta-T
°C
Wind Press
QNH
hPa
Press
MSL
hPa
Rain
since 9 am
mm
Dir
 
Spd
km/h
Gust
km/h
Spd
kts
Gust
kts
09/11:30pm 16.1 16.5 14.8 92 0.7 S 6 6 3 3 1017.5 1017.5 0.0
09/11:00pm 16.4 16.9 15.1 92 0.8 S 6 7 3 4 1017.7 1017.7 0.0
09/10:30pm 16.8 16.8 15.2 90 0.9 S 9 11 5 6 1017.8 1017.8 0.0
09/10:00pm 17.0 16.5 15.0 88 1.2 S 11 15 6 8 1017.8 1017.8 0.0
09/09:30pm 17.1 16.5 14.7 86 1.4 S 11 15 6 8 1017.8 1017.8 0.0
09/09:00pm 17.5 16.8 14.4 82 1.8 S 11 15 6 8 1017.7 1017.7 0.0
09/08:30pm 18.1 17.0 14.4 79 2.1 SSE 13 20 7 11 1017.8 1017.8 0.0
09/08:00pm 18.8 17.2 13.9 73 2.8 S 15 24 8 13 1017.9 1017.9 0.0
09/07:30pm 19.3 16.9 13.7 70 3.2 S 19 26 10 14 1017.8 1017.8 0.0
09/07:00pm 20.1 17.6 13.6 66 3.7 S 19 24 10 13 1017.6 1017.6 0.0
09/06:30pm 20.5 17.9 13.7 65 3.9 S 20 28 11 15 1017.6 1017.6 0.0
09/06:00pm 21.0 18.3 13.4 62 4.4 S 20 30 11 16 1017.5 1017.5 0.0
09/05:30pm 21.6 19.3 14.0 62 4.4 S 19 28 10 15 1017.8 1017.8 0.0
09/05:00pm 21.6 19.5 13.5 60 4.7 SSE 17 24 9 13 1018.3 1018.3 0.0
09/04:30pm 22.6 20.5 13.7 57 5.2 S 17 28 9 15 1018.4 1018.4 0.0
09/04:00pm 22.0 19.8 13.4 58 4.9 S 17 28 9 15 1018.7 1018.7 0.0
09/03:30pm 22.4 20.7 13.5 57 5.1 S 15 24 8 13 1019.0 1019.0 0.0
09/03:00pm 22.3 20.8 13.1 56 5.3 S 13 22 7 12 1019.3 1019.3 0.0
09/02:30pm 22.2 21.1 13.0 56 5.3 SSE 11 20 6 11 1019.8 1019.8 0.0
09/02:00pm 22.0 20.6 13.4 58 4.9 SSE 13 19 7 10 1020.0 1020.0 0.0
09/01:30pm 21.5 19.7 13.2 59 4.8 SSE 15 26 8 14 1020.3 1020.3 0.0
09/01:00pm 21.9 20.5 13.3 58 4.9 SSE 13 20 7 11 1020.6 1020.6 0.0
09/12:30pm 21.4 19.9 13.1 59 4.7 SSE 13 24 7 13 1021.0 1021.0 0.0
09/12:00pm 20.8 18.8 12.8 60 4.5 SSE 15 22 8 12 1021.3 1021.3 0.0
09/11:30am 21.1 19.9 12.8 59 4.7 SE 11 20 6 11 1021.5 1021.5 0.0
09/11:00am 20.9 19.6 12.6 59 4.7 SE 11 17 6 9 1021.5 1021.5 0.0
09/10:30am 20.3 19.1 12.8 62 4.2 SE 11 17 6 9 1021.7 1021.7 0.0
09/10:00am 19.9 18.7 12.9 64 3.9 SE 11 19 6 10 1021.8 1021.8 0.0
09/09:30am 18.9 17.9 12.4 66 3.6 SE 9 20 5 11 1022.0 1022.0 0.0
09/09:00am 18.5 18.0 12.7 69 3.2 SSE 7 13 4 7 1022.2 1022.2 0.0
09/08:30am 18.1 18.0 13.4 74 2.7 SSE 6 7 3 4 1022.2 1022.2 0.0
09/08:00am 17.7 17.8 12.8 73 2.7 S 4 7 2 4 1022.1 1022.1 0.0
09/07:30am 17.5 17.2 12.6 73 2.7 S 6 9 3 5 1021.9 1021.9 0.0
09/07:00am 17.1 17.2 12.6 75 2.5 SSE 4 7 2 4 1021.8 1021.8 0.0
09/06:30am 16.9 16.8 12.2 74 2.6 SE 4 6 2 3 1021.7 1021.7 0.0
09/06:00am 16.8 16.7 12.1 74 2.6 SSE 4 9 2 5 1021.5 1021.5 0.0
09/05:30am 17.1 16.1 12.4 74 2.6 S 9 15 5 8 1021.5 1021.5 0.0
09/05:00am 16.9 15.9 12.2 74 2.6 S 9 11 5 6 1021.3 1021.3 0.0
09/04:30am 17.1 15.7 12.2 73 2.7 S 11 22 6 12 1021.3 1021.3 0.0
09/04:00am 17.3 15.6 12.4 73 2.7 S 13 17 7 9 1021.5 1021.5 0.0
09/03:30am 17.3 15.9 12.2 72 2.8 S 11 17 6 9 1021.7 1021.7 0.0
09/03:00am 17.4 15.6 12.1 71 2.9 SSE 13 19 7 10 1021.9 1021.9 0.0
09/02:30am 17.6 16.4 12.9 74 2.6 S 11 15 6 8 1022.2 1022.2 0.0
09/02:00am 17.7 16.0 12.6 72 2.8 S 13 19 7 10 1022.4 1022.4 0.0
09/01:30am 17.7 16.8 13.8 78 2.2 S 11 15 6 8 1022.6 1022.6 0.0
09/01:00am 17.7 16.8 13.8 78 2.2 S 11 15 6 8 1022.9 1022.9 0.0
09/12:30am 17.5 16.6 13.6 78 2.2 S 11 19 6 10 1023.1 1023.1 0.0
09/12:00am 17.0 16.1 13.7 81 1.9 S 11 17 6 9 1023.1 1023.1 0.0
 
Date/Time
EDT
Temp
°C
App
Temp
°C
Dew
Point
Rel
Hum
%
Delta-T
°C
Wind Press
QNH
hPa
Press
MSL
hPa
Rain
since 9 am
mm
Dir
 
Spd
km/h
Gust
km/h
Spd
kts
Gust
kts
08/11:30pm 17.2 15.5 13.7 80 2.0 S 15 20 8 11 1023.3 1023.3 0.0
08/11:00pm 17.5 15.5 13.8 79 2.1 S 17 24 9 13 1023.4 1023.4 0.0
08/10:30pm 17.7 15.4 14.2 80 2.0 S 19 26 10 14 1023.3 1023.3 0.0
08/10:00pm 17.8 15.8 13.9 78 2.2 S 17 28 9 15 1023.3 1023.3 0.0
08/09:30pm 17.9 16.0 14.2 79 2.1 S 17 24 9 13 1023.2 1023.2 0.0
08/09:00pm 18.3 16.2 14.6 79 2.1 S 19 26 10 14 1022.9 1022.9 0.0
08/08:30pm 18.5 16.0 13.4 72 2.9 S 19 26 10 14 1022.6 1022.6 0.0
08/08:00pm 19.2 16.0 13.2 68 3.4 S 22 30 12 16 1022.4 1022.4 0.0
08/07:30pm 19.8 16.1 14.0 69 3.3 SSW 26 35 14 19 1022.1 1022.1 0.0
08/07:00pm 20.5 17.5 13.7 65 3.9 S 22 33 12 18 1021.8 1021.8 0.0
08/06:30pm 20.5 17.2 12.7 61 4.4 S 22 30 12 16 1021.8 1021.8 0.0
08/06:00pm 20.7 17.7 12.4 59 4.7 SSE 20 30 11 16 1021.9 1021.9 0.0
08/05:30pm 21.4 17.7 12.8 58 4.9 S 24 33 13 18 1021.9 1021.9 0.0
08/05:00pm 21.3 17.7 13.2 60 4.6 S 24 32 13 17 1022.0 1022.0 0.0
08/04:30pm 21.6 18.1 13.5 60 4.7 S 24 33 13 18 1022.1 1022.1 0.0
08/04:00pm 21.4 17.7 12.8 58 4.9 S 24 32 13 17 1022.3 1022.3 0.0
08/03:30pm 21.4 17.9 13.3 60 4.6 S 24 37 13 20 1022.4 1022.4 0.0
08/03:00pm 22.0 18.9 13.4 58 4.9 S 22 33 12 18 1022.5 1022.5 0.0
08/02:30pm 21.4 18.3 13.3 60 4.6 SSE 22 32 12 17 1022.6 1022.6 0.0
08/02:00pm 22.2 19.1 13.5 57 5.0 SSE 22 32 12 17 1022.6 1022.6 0.0
08/01:30pm 21.7 18.9 13.3 59 4.8 S 20 35 11 19 1022.7 1022.7 0.0
08/01:00pm 22.0 19.5 13.4 58 4.9 S 19 28 10 15 1022.7 1022.7 0.0
08/12:30pm 21.9 19.0 13.0 57 5.1 S 20 32 11 17 1022.8 1022.8 0.0
08/12:00pm 21.6 18.8 13.2 59 4.8 S 20 32 11 17 1023.0 1023.0 0.0
08/11:30am 21.1 18.7 12.5 58 4.9 S 17 28 9 15 1023.0 1023.0 0.0

Other Formats:

Comma delimited format used in spreadsheet applications
http://www.bom.gov.au/fwo/IDV60801/IDV60801.94857.axf

JavaScript Object Notation format (JSON) in row-major order
http://www.bom.gov.au/fwo/IDV60801/IDV60801.94857.json